createdAt,value
2022-10-22T00:00:13.531Z,1.77
2022-10-22T00:02:41.062Z,2.00
2022-10-22T00:05:08.860Z,1.80
2022-10-22T00:07:39.048Z,2.00
2022-10-22T00:10:11.491Z,2.20
2022-10-22T00:12:42.503Z,1.70
2022-10-22T00:15:11.315Z,1.60
2022-10-22T00:17:38.524Z,2.13
2022-10-22T00:20:08.487Z,1.97
2022-10-22T00:22:35.423Z,1.80
2022-10-22T00:25:05.752Z,1.80
2022-10-22T00:27:39.057Z,1.70
2022-10-22T00:30:13.470Z,1.70
2022-10-22T00:32:42.472Z,2.10
2022-10-22T00:35:09.780Z,1.83
2022-10-22T00:37:47.493Z,1.90
2022-10-22T00:40:14.469Z,1.80
2022-10-22T00:42:41.595Z,1.73
2022-10-22T00:48:23.676Z,2.00
2022-10-22T00:50:58.020Z,1.83
2022-10-22T00:53:55.096Z,2.20
2022-10-22T00:56:23.894Z,1.60
2022-10-22T00:58:55.928Z,1.70
2022-10-22T01:01:29.775Z,1.90
2022-10-22T01:03:57.488Z,1.80
2022-10-22T01:06:26.388Z,1.90
2022-10-22T01:09:15.038Z,1.70
2022-10-22T01:12:09.684Z,1.87
2022-10-22T01:14:55.178Z,1.73
2022-10-22T01:17:48.469Z,1.70
2022-10-22T01:20:24.506Z,1.70
2022-10-22T01:23:12.741Z,1.70
2022-10-22T01:25:54.454Z,1.90
2022-10-22T01:28:41.048Z,1.77
2022-10-22T01:31:10.498Z,1.80
2022-10-22T01:33:40.408Z,1.70
2022-10-22T01:36:12.172Z,2.07
2022-10-22T01:38:40.954Z,1.93
2022-10-22T01:41:09.761Z,1.70
2022-10-22T01:43:37.029Z,1.70
2022-10-22T01:46:08.024Z,1.87
2022-10-22T01:49:13.841Z,1.70
2022-10-22T01:51:54.687Z,1.80
2022-10-22T01:54:31.244Z,1.70
2022-10-22T01:57:24.340Z,1.87
2022-10-22T01:59:55.218Z,1.90
2022-10-22T02:03:13.265Z,1.73
2022-10-22T02:05:52.342Z,1.70
2022-10-22T02:08:31.712Z,1.80
2022-10-22T02:10:59.921Z,1.90
2022-10-22T02:13:58.877Z,1.80
2022-10-22T02:16:38.798Z,2.03
2022-10-22T02:19:25.101Z,1.60
2022-10-22T02:21:53.645Z,1.63
2022-10-22T02:24:22.145Z,2.00
2022-10-22T02:27:04.594Z,1.80
2022-10-22T02:29:41.412Z,1.70
2022-10-22T02:32:11.539Z,1.60
2022-10-22T02:34:38.857Z,1.73
2022-10-22T02:37:07.311Z,1.70
2022-10-22T02:39:36.306Z,1.90
2022-10-22T02:42:06.767Z,1.90
2022-10-22T02:44:33.668Z,1.70
2022-10-22T02:47:03.614Z,1.70
2022-10-22T02:49:30.944Z,1.80
2022-10-22T02:51:58.026Z,1.50
2022-10-22T02:54:25.057Z,1.77
2022-10-22T02:56:52.381Z,1.77
2022-10-22T02:59:19.852Z,1.80
2022-10-22T03:01:46.809Z,1.73
2022-10-22T03:04:13.653Z,1.77
2022-10-22T03:06:44.185Z,1.60
2022-10-22T03:09:11.452Z,1.90
2022-10-22T03:11:41.679Z,1.90
2022-10-22T03:14:08.566Z,1.80
2022-10-22T03:16:35.668Z,1.80
2022-10-22T03:19:02.648Z,1.80
2022-10-22T03:21:39.249Z,1.50
2022-10-22T03:24:17.812Z,2.00
2022-10-22T03:26:46.773Z,1.70
2022-10-22T03:29:15.963Z,1.90
2022-10-22T03:31:42.888Z,1.70
2022-10-22T03:34:12.420Z,1.50
2022-10-22T03:36:42.611Z,1.67
2022-10-22T03:39:12.677Z,1.90
2022-10-22T03:41:39.610Z,1.67
2022-10-22T03:44:07.180Z,1.63
2022-10-22T03:46:36.884Z,1.53
2022-10-22T03:49:03.942Z,1.70
2022-10-22T03:51:31.199Z,1.70
2022-10-22T03:53:58.326Z,1.80
2022-10-22T03:56:26.039Z,1.50
2022-10-22T03:58:59.066Z,2.00
2022-10-22T04:01:27.118Z,1.60
2022-10-22T04:03:58.933Z,1.60
2022-10-22T04:06:26.325Z,1.47
2022-10-22T04:08:53.897Z,1.60
2022-10-22T04:11:24.056Z,1.60
2022-10-22T04:13:50.901Z,1.50
2022-10-22T04:19:04.268Z,1.60
2022-10-22T04:21:34.688Z,1.87
2022-10-22T04:24:02.565Z,1.90
2022-10-22T04:26:29.396Z,1.60
2022-10-22T04:28:58.399Z,1.60
2022-10-22T04:31:26.365Z,1.77
2022-10-22T04:34:00.749Z,1.40
2022-10-22T04:36:29.534Z,1.80
2022-10-22T04:39:00.577Z,1.50
2022-10-22T04:41:48.779Z,1.80
2022-10-22T04:44:17.156Z,1.70
2022-10-22T04:46:44.717Z,1.30
2022-10-22T04:49:11.860Z,1.53
2022-10-22T04:51:39.682Z,1.53
2022-10-22T04:54:09.446Z,1.60
2022-10-22T04:56:36.730Z,1.40
2022-10-22T04:59:06.705Z,1.60
2022-10-22T05:04:25.500Z,1.60
2022-10-22T05:06:56.560Z,1.60
2022-10-22T05:09:30.423Z,1.67
2022-10-22T05:11:57.508Z,1.77
2022-10-22T05:17:24.425Z,1.67
2022-10-22T05:23:17.872Z,1.53
2022-10-22T05:25:45.090Z,1.80
2022-10-22T05:28:12.153Z,1.50
2022-10-22T05:30:39.201Z,1.50
2022-10-22T05:33:06.514Z,1.53
2022-10-22T05:35:33.486Z,1.50
2022-10-22T05:38:00.361Z,1.77
2022-10-22T05:40:31.104Z,1.60
2022-10-22T05:42:58.981Z,1.80
2022-10-22T05:45:25.892Z,1.70
2022-10-22T05:47:53.253Z,1.70
2022-10-22T05:50:25.395Z,1.73
2022-10-22T05:52:52.305Z,1.50
2022-10-22T05:55:19.534Z,1.40
2022-10-22T05:57:46.415Z,1.50
2022-10-22T06:00:16.537Z,1.60
2022-10-22T06:02:43.537Z,1.50
2022-10-22T06:05:12.295Z,1.53
2022-10-22T06:07:39.436Z,1.70
2022-10-22T06:10:07.930Z,1.60
2022-10-22T06:12:35.066Z,1.60
2022-10-22T06:15:06.191Z,1.40
2022-10-22T06:17:33.270Z,1.30
2022-10-22T06:20:00.237Z,1.60
2022-10-22T06:22:27.388Z,1.70
2022-10-22T06:24:56.135Z,1.60
2022-10-22T06:27:23.191Z,1.47
2022-10-22T06:29:50.546Z,1.60
2022-10-22T06:32:17.478Z,1.50
2022-10-22T06:34:44.318Z,1.40
2022-10-22T06:37:11.424Z,1.80
2022-10-22T06:39:38.305Z,1.70
2022-10-22T06:42:05.233Z,1.50
2022-10-22T06:44:32.667Z,1.50
2022-10-22T06:49:41.785Z,1.57
2022-10-22T06:52:14.152Z,1.50
2022-10-22T06:54:41.346Z,1.50
2022-10-22T06:57:08.319Z,1.50
2022-10-22T06:59:36.343Z,1.40
2022-10-22T07:02:13.797Z,1.63
2022-10-22T07:04:40.779Z,1.50
2022-10-22T07:07:10.689Z,1.50
2022-10-22T07:09:39.444Z,1.50
2022-10-22T07:12:08.860Z,1.60
2022-10-22T07:14:37.338Z,1.47
2022-10-22T07:17:07.304Z,1.60
2022-10-22T07:19:38.969Z,1.50
2022-10-22T07:22:08.464Z,1.67
2022-10-22T07:24:39.337Z,1.77
2022-10-22T07:29:47.498Z,1.57
2022-10-22T07:32:14.454Z,1.90
2022-10-22T07:34:43.160Z,1.50
2022-10-22T07:37:10.920Z,1.37
2022-10-22T07:39:37.903Z,1.60
2022-10-22T07:42:04.830Z,1.30
2022-10-22T07:44:34.361Z,1.30
2022-10-22T07:47:01.231Z,1.50
2022-10-22T07:49:30.512Z,1.47
2022-10-22T07:51:59.918Z,1.50
2022-10-22T07:54:27.147Z,1.73
2022-10-22T07:56:55.664Z,1.30
2022-10-22T07:59:27.716Z,1.73
2022-10-22T08:01:54.565Z,1.60
2022-10-22T08:04:22.139Z,1.60
2022-10-22T08:06:49.055Z,1.47
2022-10-22T08:11:57.328Z,1.50
2022-10-22T08:14:24.807Z,1.30
2022-10-22T08:16:52.280Z,1.67
2022-10-22T08:19:23.240Z,1.60
2022-10-22T08:21:53.138Z,1.63
2022-10-22T08:24:20.695Z,1.70
2022-10-22T08:26:50.055Z,1.60
2022-10-22T08:29:19.675Z,1.50
2022-10-22T08:31:46.573Z,1.50
2022-10-22T08:36:58.056Z,1.50
2022-10-22T08:39:25.018Z,1.40
2022-10-22T08:46:04.423Z,1.33
2022-10-22T08:48:50.953Z,1.70
2022-10-22T08:51:26.071Z,1.60
2022-10-22T08:54:13.747Z,1.60
2022-10-22T08:56:47.998Z,1.40
2022-10-22T08:59:26.606Z,1.40
2022-10-22T09:02:07.526Z,1.43
2022-10-22T09:04:45.253Z,1.40
2022-10-22T09:10:01.672Z,1.20
2022-10-22T09:12:28.991Z,1.67
2022-10-22T09:14:56.156Z,1.40
2022-10-22T09:17:42.050Z,1.50
2022-10-22T09:20:18.343Z,1.40
2022-10-22T09:23:23.084Z,1.40
2022-10-22T09:26:01.647Z,1.43
2022-10-22T09:28:28.605Z,1.30
2022-10-22T09:33:44.985Z,1.80
2022-10-22T09:36:22.564Z,1.50
2022-10-22T09:38:57.383Z,1.30
2022-10-22T09:41:29.794Z,1.40
2022-10-22T09:43:59.921Z,1.30
2022-10-22T09:46:44.632Z,1.50
2022-10-22T09:49:20.530Z,1.37
2022-10-22T09:51:58.155Z,1.40
2022-10-22T09:54:38.572Z,1.80
2022-10-22T09:57:28.454Z,1.40
2022-10-22T09:59:59.708Z,1.40
2022-10-22T10:02:44.717Z,1.50
2022-10-22T10:05:22.001Z,1.40
2022-10-22T10:07:49.159Z,1.50
2022-10-22T10:11:05.238Z,1.47
2022-10-22T10:13:43.980Z,1.50
2022-10-22T10:16:36.308Z,1.30
2022-10-22T10:19:30.863Z,1.50
2022-10-22T10:22:07.698Z,1.60
2022-10-22T10:25:12.372Z,1.40
2022-10-22T10:28:05.110Z,1.43
2022-10-22T10:30:39.893Z,1.40
2022-10-22T10:33:25.003Z,1.50
2022-10-22T10:36:09.027Z,1.30
2022-10-22T10:38:57.482Z,1.50
2022-10-22T10:41:35.679Z,1.70
2022-10-22T10:44:42.746Z,1.47
2022-10-22T10:47:47.125Z,1.40
2022-10-22T10:50:49.686Z,1.30
2022-10-22T10:53:31.484Z,1.50
2022-10-22T10:56:25.713Z,1.40
2022-10-22T10:59:13.497Z,1.40
2022-10-22T11:01:55.369Z,1.67
2022-10-22T11:04:48.109Z,1.60
2022-10-22T11:07:44.262Z,1.60
2022-10-22T11:10:45.824Z,1.30
2022-10-22T11:13:36.127Z,1.53
2022-10-22T11:16:12.374Z,1.40
2022-10-22T11:18:45.513Z,1.47
2022-10-22T11:21:49.817Z,1.50
2022-10-22T11:24:39.543Z,1.30
2022-10-22T11:27:27.159Z,1.40
2022-10-22T11:30:19.577Z,1.60
2022-10-22T11:32:56.112Z,1.37
2022-10-22T11:35:31.196Z,1.60
2022-10-22T11:37:58.717Z,1.40
2022-10-22T11:40:43.076Z,1.50
2022-10-22T11:46:22.064Z,1.23
2022-10-22T11:49:47.181Z,1.33
2022-10-22T11:52:34.316Z,1.60
2022-10-22T11:58:35.707Z,1.30
2022-10-22T12:01:08.036Z,1.30
2022-10-22T12:03:44.091Z,1.57
2022-10-22T12:06:15.864Z,1.47
2022-10-22T12:08:49.032Z,1.33
2022-10-22T12:11:42.705Z,1.30
2022-10-22T12:14:28.080Z,1.33
2022-10-22T12:17:01.654Z,1.50
2022-10-22T12:19:38.514Z,1.30
2022-10-22T12:22:32.749Z,1.53
2022-10-22T12:25:08.263Z,1.50
2022-10-22T12:27:40.424Z,1.67
2022-10-22T12:30:29.535Z,1.40
2022-10-22T12:33:00.582Z,1.50
2022-10-22T12:35:38.592Z,1.20
2022-10-22T12:38:36.139Z,1.40
2022-10-22T12:41:03.056Z,1.57
2022-10-22T12:43:31.011Z,1.40
2022-10-22T12:45:59.986Z,1.33
2022-10-22T12:48:40.985Z,1.53
2022-10-22T12:51:09.647Z,1.40
2022-10-22T12:53:39.765Z,1.30
2022-10-22T12:56:16.419Z,1.40
2022-10-22T12:58:52.755Z,1.50
2022-10-22T13:01:22.194Z,1.20
2022-10-22T13:04:14.375Z,1.37
2022-10-22T13:06:48.707Z,1.50
2022-10-22T13:09:25.191Z,1.30
2022-10-22T13:12:05.049Z,1.50
2022-10-22T13:17:36.849Z,1.30
2022-10-22T13:20:37.301Z,1.40
2022-10-22T13:23:07.719Z,1.93
2022-10-22T13:25:38.682Z,1.53
2022-10-22T13:28:22.014Z,1.30
2022-10-22T13:31:19.689Z,1.60
2022-10-22T13:34:15.153Z,1.30
2022-10-22T13:42:28.218Z,1.20
2022-10-22T13:44:55.138Z,1.40
2022-10-22T13:47:31.463Z,1.40
2022-10-22T13:50:06.328Z,1.40
2022-10-22T13:52:42.032Z,1.40
2022-10-22T13:55:27.271Z,1.50
2022-10-22T13:58:08.370Z,1.30
2022-10-22T14:00:44.623Z,1.60
2022-10-22T14:03:17.514Z,1.60
2022-10-22T14:05:53.679Z,1.43
2022-10-22T14:08:22.478Z,1.57
2022-10-22T14:10:52.491Z,1.50
2022-10-22T14:13:31.566Z,1.30
2022-10-22T14:15:58.679Z,1.40
2022-10-22T14:18:29.077Z,1.50
2022-10-22T14:21:00.827Z,1.30
2022-10-22T14:23:36.201Z,1.40
2022-10-22T14:26:04.071Z,1.47
2022-10-22T14:31:13.011Z,1.40
2022-10-22T14:33:40.199Z,1.30
2022-10-22T14:36:18.574Z,1.37
2022-10-22T14:38:47.527Z,1.40
2022-10-22T14:41:25.378Z,1.40
2022-10-22T14:43:52.803Z,1.50
2022-10-22T14:46:23.769Z,1.43
2022-10-22T14:48:50.871Z,1.30
2022-10-22T14:51:19.868Z,1.40
2022-10-22T14:53:50.876Z,1.50
2022-10-22T14:56:23.076Z,1.37
2022-10-22T14:58:55.156Z,1.33
2022-10-22T15:01:28.497Z,1.40
2022-10-22T15:03:55.411Z,1.27
2022-10-22T15:06:22.342Z,1.27
2022-10-22T15:08:55.313Z,1.60
2022-10-22T15:11:23.943Z,1.23
2022-10-22T15:13:59.414Z,1.50
2022-10-22T15:16:26.361Z,1.13
2022-10-22T15:19:16.772Z,1.40
2022-10-22T15:21:51.838Z,1.50
2022-10-22T15:24:18.784Z,1.37
2022-10-22T15:26:46.059Z,1.40
2022-10-22T15:29:14.109Z,1.40
2022-10-22T15:31:51.470Z,1.50
2022-10-22T15:34:42.046Z,1.30
2022-10-22T15:37:12.288Z,1.50
2022-10-22T15:39:42.881Z,1.40
2022-10-22T15:42:19.148Z,1.30
2022-10-22T15:45:00.774Z,1.30
2022-10-22T15:50:18.513Z,1.30
2022-10-22T15:52:45.434Z,1.10
2022-10-22T15:57:40.602Z,1.47
2022-10-22T16:00:11.390Z,1.20
2022-10-22T16:02:45.457Z,1.30
2022-10-22T16:05:27.710Z,1.43
2022-10-22T16:07:56.562Z,1.10
2022-10-22T16:13:07.487Z,1.40
2022-10-22T16:15:41.486Z,1.13
2022-10-22T16:18:08.976Z,1.30
2022-10-22T16:20:44.414Z,1.40
2022-10-22T16:23:12.397Z,1.20
2022-10-22T16:25:46.880Z,1.33
2022-10-22T16:28:18.092Z,1.40
2022-10-22T16:30:45.962Z,1.50
2022-10-22T16:33:16.328Z,1.30
2022-10-22T16:35:51.340Z,1.40
2022-10-22T16:41:22.498Z,1.10
2022-10-22T16:43:51.564Z,1.30
2022-10-22T16:46:33.539Z,1.33
2022-10-22T16:49:01.731Z,1.30
2022-10-22T16:54:34.178Z,1.23
2022-10-22T16:57:01.170Z,1.30
2022-10-22T16:59:28.187Z,1.43
2022-10-22T17:02:08.619Z,1.33
2022-10-22T17:04:39.140Z,1.37
2022-10-22T17:09:54.127Z,1.23
2022-10-22T17:12:21.055Z,1.10
2022-10-22T17:14:47.952Z,1.33
2022-10-22T17:17:22.429Z,1.30
2022-10-22T17:19:54.739Z,1.27
2022-10-22T17:22:21.879Z,1.20
2022-10-22T17:28:31.832Z,1.20
2022-10-22T17:31:41.636Z,1.10
2022-10-22T17:37:01.255Z,1.40
2022-10-22T17:39:30.559Z,1.30
2022-10-22T17:44:38.365Z,1.20
2022-10-22T17:47:05.329Z,1.30
2022-10-22T17:52:14.643Z,1.40
2022-10-22T17:54:43.419Z,1.20
2022-10-22T17:57:24.026Z,1.20
2022-10-22T17:59:51.378Z,1.30
2022-10-22T18:05:06.575Z,1.40
2022-10-22T18:10:20.381Z,1.20
2022-10-22T18:15:34.134Z,1.20
2022-10-22T18:18:01.151Z,1.13
2022-10-22T18:20:39.842Z,1.20
2022-10-22T18:23:09.188Z,1.30
2022-10-22T18:25:39.235Z,1.20
2022-10-22T18:28:08.515Z,1.33
2022-10-22T18:31:00.111Z,1.37
2022-10-22T18:33:29.196Z,1.30
2022-10-22T18:36:03.462Z,1.37
2022-10-22T18:38:30.334Z,1.30
2022-10-22T18:41:00.237Z,1.20
2022-10-22T18:43:32.931Z,1.30
2022-10-22T18:46:00.011Z,1.20
2022-10-22T18:48:26.989Z,1.20
2022-10-22T18:51:03.279Z,1.33
2022-10-22T18:53:30.232Z,1.30
2022-10-22T18:55:57.217Z,1.30
2022-10-22T18:58:24.189Z,1.30
2022-10-22T19:00:54.897Z,1.17
2022-10-22T19:03:25.710Z,1.27
2022-10-22T19:05:57.664Z,1.30
2022-10-22T19:08:24.637Z,1.20
2022-10-22T19:10:57.289Z,1.20
2022-10-22T19:16:14.815Z,1.10
2022-10-22T19:18:42.530Z,1.23
2022-10-22T19:21:13.978Z,1.20
2022-10-22T19:23:49.025Z,1.03
2022-10-22T19:26:24.176Z,1.30
2022-10-22T19:28:52.785Z,1.10
2022-10-22T19:31:22.856Z,1.40
2022-10-22T19:33:55.104Z,1.17
2022-10-22T19:36:28.230Z,1.10
2022-10-22T19:38:58.902Z,1.20
2022-10-22T19:41:40.548Z,1.20
2022-10-22T19:44:08.519Z,1.00
2022-10-22T19:46:38.397Z,1.10
2022-10-22T19:49:10.431Z,1.50
2022-10-22T19:51:38.776Z,1.30
2022-10-22T19:54:07.929Z,1.30
2022-10-22T19:56:36.307Z,1.30
2022-10-22T19:59:04.815Z,1.30
2022-10-22T20:01:35.540Z,1.30
2022-10-22T20:04:02.806Z,1.23
2022-10-22T20:06:30.455Z,1.47
2022-10-22T20:11:41.300Z,1.10
2022-10-22T20:14:08.264Z,1.00
2022-10-22T20:16:36.209Z,1.20
2022-10-22T20:19:09.871Z,1.23
2022-10-22T20:21:38.626Z,1.17
2022-10-22T20:24:05.707Z,1.20
2022-10-22T20:26:36.136Z,1.10
2022-10-22T20:29:04.595Z,1.30
2022-10-22T20:31:32.986Z,1.30
2022-10-22T20:34:04.388Z,1.13
2022-10-22T20:36:32.071Z,1.20
2022-10-22T20:39:08.694Z,1.00
2022-10-22T20:41:38.744Z,1.00
2022-10-22T20:44:05.630Z,1.13
2022-10-22T20:46:35.053Z,1.23
2022-10-22T20:49:08.490Z,1.20
2022-10-22T20:51:37.204Z,0.97
2022-10-22T20:54:05.568Z,1.20
2022-10-22T20:56:33.466Z,1.10
2022-10-22T20:59:05.435Z,1.17
2022-10-22T21:01:41.259Z,1.20
2022-10-22T21:04:09.049Z,1.20
2022-10-22T21:06:38.353Z,1.20
2022-10-22T21:09:09.835Z,1.40
2022-10-22T21:11:39.159Z,1.10
2022-10-22T21:14:09.907Z,1.00
2022-10-22T21:16:46.896Z,1.13
2022-10-22T21:19:13.848Z,1.30
2022-10-22T21:21:41.199Z,1.10
2022-10-22T21:24:08.493Z,1.07
2022-10-22T21:26:39.488Z,1.10
2022-10-22T21:29:07.586Z,1.30
2022-10-22T21:31:34.510Z,1.20
2022-10-22T21:34:01.598Z,1.10
2022-10-22T21:36:29.159Z,1.10
2022-10-22T21:38:58.969Z,1.10
2022-10-22T21:41:25.977Z,1.30
2022-10-22T21:43:52.980Z,1.13
2022-10-22T21:46:25.372Z,1.20
2022-10-22T21:49:03.604Z,1.30
2022-10-22T21:51:33.345Z,1.30
2022-10-22T21:54:00.632Z,1.03
2022-10-22T21:56:34.084Z,1.40
2022-10-22T21:59:02.395Z,1.10
2022-10-22T22:01:29.809Z,0.93
2022-10-22T22:03:56.855Z,1.30
2022-10-22T22:06:28.280Z,1.13
2022-10-22T22:08:58.275Z,1.33
2022-10-22T22:11:27.452Z,1.10
2022-10-22T22:13:55.996Z,1.30
2022-10-22T22:16:28.333Z,1.30
2022-10-22T22:19:01.789Z,1.20
2022-10-22T22:21:29.685Z,1.00
2022-10-22T22:23:58.029Z,1.10
2022-10-22T22:26:29.682Z,1.20
2022-10-22T22:28:58.517Z,1.13
2022-10-22T22:31:28.521Z,1.20
2022-10-22T22:34:03.035Z,1.20
2022-10-22T22:36:35.066Z,1.13
2022-10-22T22:39:03.365Z,1.20
2022-10-22T22:41:30.463Z,1.07
2022-10-22T22:43:57.392Z,1.20
2022-10-22T22:46:24.359Z,1.13
2022-10-22T22:48:51.775Z,1.00
2022-10-22T22:51:19.331Z,1.20
2022-10-22T22:53:46.762Z,1.00
2022-10-22T22:56:19.392Z,1.20
2022-10-22T22:58:46.800Z,1.10
2022-10-22T23:01:16.924Z,1.17
2022-10-22T23:03:47.469Z,0.97
2022-10-22T23:06:15.896Z,1.00
2022-10-22T23:08:43.348Z,1.03
2022-10-22T23:11:14.505Z,1.10
2022-10-22T23:13:42.807Z,1.30
2022-10-22T23:16:18.825Z,1.20
2022-10-22T23:18:47.094Z,1.10
2022-10-22T23:21:18.031Z,1.13
2022-10-22T23:23:47.411Z,1.20
2022-10-22T23:26:17.891Z,1.03
2022-10-22T23:28:44.995Z,1.00
2022-10-22T23:31:15.201Z,1.17
2022-10-22T23:33:42.584Z,1.10
2022-10-22T23:36:10.080Z,1.10
2022-10-22T23:38:38.936Z,1.00
2022-10-22T23:41:06.731Z,1.10
2022-10-22T23:43:37.808Z,1.20
2022-10-22T23:46:06.424Z,1.30
2022-10-22T23:48:33.644Z,1.10
2022-10-22T23:51:08.811Z,1.30
2022-10-22T23:53:35.703Z,1.30
2022-10-22T23:56:08.573Z,1.10
2022-10-22T23:58:35.766Z,1.20
